Time;durP1;ratioP1;P1;durP2;ratioP2;P2;SDS_P1;SDS_P2;PMS_P1;PMS_P2;Temp;Humidity;BMP_temperature;BMP_pressure;BME280_temperature;BME280_humidity;BME280_pressure;Samples;Min_cycle;Max_cycle;Signal;HPM_P1;HPM_P2
2021/12/15 00:02:23;;;;;;;50.75;15.77;;;5.20;99.90;;;;;;5011752;28;20057;-72
2021/12/15 00:04:51;;;;;;;51.55;15.80;;;5.20;99.90;;;;;;5010480;28;20030;-74
2021/12/15 00:07:21;;;;;;;53.92;15.32;;;5.10;99.90;;;;;;5012019;28;20065;-72
2021/12/15 00:09:47;;;;;;;;;;;5.20;99.90;;;;;;5011474;28;20183;-73
2021/12/15 00:12:14;;;;;;;51.25;14.90;;;5.20;99.90;;;;;;5011020;28;20026;-72
2021/12/15 00:14:41;;;;;;;51.92;16.10;;;5.20;99.90;;;;;;5012088;28;20029;-72
2021/12/15 00:17:07;;;;;;;47.92;14.88;;;5.20;99.90;;;;;;5010260;28;20558;-72
2021/12/15 00:19:33;;;;;;;52.35;15.35;;;5.20;99.90;;;;;;5009062;28;20402;-72
2021/12/15 00:22:00;;;;;;;45.95;15.27;;;5.20;99.90;;;;;;5010103;28;20038;-72
2021/12/15 00:24:26;;;;;;;53.30;16.38;;;5.20;99.90;;;;;;5011311;28;20092;-73
2021/12/15 00:26:54;;;;;;;56.03;16.40;;;5.20;99.90;;;;;;5009614;28;20069;-73
2021/12/15 00:29:20;;;;;;;51.90;14.85;;;5.20;99.90;;;;;;5011399;28;20500;-73
2021/12/15 00:31:47;;;;;;;53.28;16.13;;;5.20;99.90;;;;;;5008877;28;20030;-73
2021/12/15 00:34:14;;;;;;;46.28;15.55;;;5.20;99.90;;;;;;5010296;28;20874;-72
2021/12/15 00:36:43;;;;;;;49.95;15.35;;;5.20;99.90;;;;;;5010567;28;20469;-73
2021/12/15 00:39:11;;;;;;;51.00;14.73;;;5.20;99.90;;;;;;5009591;28;20651;-72
2021/12/15 00:41:38;;;;;;;46.22;14.35;;;5.20;99.90;;;;;;5011276;28;20034;-74
2021/12/15 00:44:04;;;;;;;60.72;16.45;;;5.20;99.90;;;;;;5009501;28;20117;-72
2021/12/15 00:46:30;;;;;;;56.42;16.60;;;5.30;99.90;;;;;;5010003;28;20030;-72
2021/12/15 00:48:57;;;;;;;43.13;13.77;;;5.30;99.90;;;;;;5009779;28;20029;-72
2021/12/15 00:51:23;;;;;;;51.38;16.27;;;5.30;99.90;;;;;;5010274;28;20068;-72
2021/12/15 00:53:49;;;;;;;50.25;15.30;;;5.30;99.90;;;;;;5009617;28;20061;-72
2021/12/15 00:56:15;;;;;;;54.90;15.73;;;5.30;99.90;;;;;;5010498;28;20437;-72
2021/12/15 00:58:41;;;;;;;55.00;15.68;;;5.30;99.90;;;;;;5008339;28;20040;-73
2021/12/15 01:01:06;;;;;;;53.28;15.20;;;5.20;99.90;;;;;;5009781;28;20030;-73
2021/12/15 01:03:33;;;;;;;49.92;14.80;;;5.20;99.90;;;;;;5010773;28;20040;-72
2021/12/15 01:06:06;;;;;;;49.00;15.27;;;5.30;99.90;;;;;;5009451;28;20045;-73
2021/12/15 01:08:36;;;;;;;56.88;15.02;;;5.20;99.90;;;;;;5010047;28;20148;-72
2021/12/15 01:11:13;;;;;;;54.58;15.60;;;5.20;99.90;;;;;;5009761;28;20487;-72
2021/12/15 01:22:02;;;;;;;50.80;15.23;;;5.20;99.90;;;;;;5006090;28;20052;-72
2021/12/15 01:24:27;;;;;;;54.13;15.85;;;5.20;99.90;;;;;;5010248;28;20034;-73
2021/12/15 01:26:53;;;;;;;63.97;15.35;;;5.20;99.90;;;;;;5008226;28;20799;-73
2021/12/15 01:29:19;;;;;;;51.67;16.40;;;5.20;99.90;;;;;;5009600;28;20764;-72
2021/12/15 01:31:45;;;;;;;49.70;14.85;;;5.20;99.90;;;;;;5009863;28;20033;-72
2021/12/15 01:34:11;;;;;;;53.58;16.25;;;5.20;99.90;;;;;;5009818;28;20442;-72
2021/12/15 01:36:37;;;;;;;53.00;15.10;;;5.20;99.90;;;;;;5010369;28;20033;-72
2021/12/15 01:39:03;;;;;;;61.88;16.70;;;5.20;99.90;;;;;;5009119;28;20255;-72
2021/12/15 01:41:29;;;;;;;48.50;15.30;;;5.20;99.90;;;;;;5009611;28;20034;-72
2021/12/15 01:49:26;;;;;;;50.90;14.48;;;5.30;99.90;;;;;;5008485;28;20109;-72
2021/12/15 01:51:53;;;;;;;60.15;17.63;;;5.30;99.90;;;;;;5010430;28;20056;-72
2021/12/15 01:54:21;;;;;;;48.20;15.43;;;5.20;99.90;;;;;;5008609;28;20120;-72
2021/12/15 01:56:47;;;;;;;57.72;15.07;;;5.20;99.90;;;;;;5007774;28;20124;-73
2021/12/15 01:59:15;;;;;;;68.10;17.38;;;5.20;99.90;;;;;;5008993;28;20042;-72
2021/12/15 02:01:41;;;;;;;75.05;16.80;;;5.20;99.90;;;;;;5008438;28;20038;-72
2021/12/15 02:04:07;;;;;;;162.63;18.45;;;5.20;99.90;;;;;;5007535;28;20030;-72
2021/12/15 02:06:33;;;;;;;146.20;15.98;;;5.10;99.90;;;;;;5009127;28;20034;-72
2021/12/15 02:09:00;;;;;;;222.05;18.08;;;5.10;99.90;;;;;;5007755;28;20026;-73
2021/12/15 02:11:26;;;;;;;138.45;16.70;;;5.10;99.90;;;;;;5008108;28;20066;-73
2021/12/15 02:13:52;;;;;;;114.32;15.35;;;5.10;99.90;;;;;;5009265;28;20069;-72
2021/12/15 02:16:18;;;;;;;365.13;19.27;;;5.10;99.90;;;;;;5007090;28;20030;-72
2021/12/15 02:18:45;;;;;;;220.95;15.05;;;5.10;99.90;;;;;;5009357;28;20036;-73
2021/12/15 02:21:23;;;;;;;72.35;13.15;;;5.10;99.90;;;;;;5008458;28;20047;-72
2021/12/15 02:23:54;;;;;;;64.22;15.05;;;5.10;99.90;;;;;;5009091;28;20072;-72
2021/12/15 02:26:26;;;;;;;44.47;14.85;;;5.00;99.90;;;;;;5008427;28;20045;-72
2021/12/15 02:28:55;;;;;;;84.20;16.38;;;5.10;99.90;;;;;;5008677;28;20037;-72
2021/12/15 02:31:54;;;;;;;62.25;15.82;;;5.10;99.90;;;;;;5007859;28;20038;-72
2021/12/15 02:39:28;;;;;;;159.82;19.70;;;5.10;99.90;;;;;;5008098;28;20037;-73
2021/12/15 02:41:54;;;;;;;94.00;19.48;;;5.10;99.90;;;;;;5008020;28;20030;-72
2021/12/15 02:44:21;;;;;;;63.42;17.15;;;5.10;99.90;;;;;;5008081;28;20033;-72
2021/12/15 02:46:49;;;;;;;64.35;18.42;;;5.10;99.90;;;;;;5007616;28;20080;-72
2021/12/15 02:49:17;;;;;;;60.15;17.33;;;5.10;99.90;;;;;;5007799;28;20561;-72
2021/12/15 02:51:45;;;;;;;77.78;18.10;;;5.10;99.90;;;;;;5008233;28;20026;-72
2021/12/15 02:54:13;;;;;;;58.08;17.20;;;5.10;99.90;;;;;;5006643;28;20033;-73
2021/12/15 02:56:44;;;;;;;66.93;16.63;;;5.10;99.90;;;;;;5007784;28;20042;-72
2021/12/15 02:59:14;;;;;;;60.15;16.13;;;5.10;99.90;;;;;;5007955;28;20026;-73
2021/12/15 03:02:08;;;;;;;63.97;17.25;;;5.10;99.90;;;;;;5007727;28;20461;-73
2021/12/15 03:04:48;;;;;;;53.95;16.50;;;5.10;99.90;;;;;;5001221;28;20033;-72
2021/12/15 03:07:26;;;;;;;62.20;17.15;;;5.10;99.90;;;;;;5006688;28;20034;-73
2021/12/15 03:15:30;;;;;;;64.03;17.45;;;5.20;99.90;;;;;;5011208;28;20045;-70
2021/12/15 03:18:08;;;;;;;59.50;16.88;;;5.10;99.90;;;;;;5010980;28;20045;-72
2021/12/15 03:20:45;;;;;;;75.50;17.90;;;5.10;99.90;;;;;;5003538;28;20120;-73
2021/12/15 03:23:13;;;;;;;68.63;18.75;;;5.10;99.90;;;;;;5008171;28;20037;-74
2021/12/15 03:25:40;;;;;;;129.90;18.70;;;5.20;99.90;;;;;;5006899;28;20030;-73
2021/12/15 03:34:36;;;;;;;59.38;17.02;;;5.10;99.90;;;;;;5008277;28;20084;-72
2021/12/15 03:36:51;;;;;;;58.55;16.92;;;5.10;99.90;;;;;;5009694;28;20046;-73
2021/12/15 03:39:18;;;;;;;59.08;17.75;;;5.10;99.90;;;;;;5024335;28;20033;-72
2021/12/15 03:41:44;;;;;;;62.28;17.65;;;5.10;99.90;;;;;;5010940;28;20046;-73
2021/12/15 03:44:10;;;;;;;60.33;16.63;;;5.10;99.90;;;;;;5010504;28;20045;-72
2021/12/15 03:46:37;;;;;;;58.95;16.63;;;5.10;99.90;;;;;;5009006;28;20062;-73
2021/12/15 03:49:04;;;;;;;55.45;15.82;;;5.10;99.90;;;;;;5006808;28;20076;-73
2021/12/15 03:51:29;;;;;;;119.78;20.25;;;5.10;99.90;;;;;;5009766;28;20034;-72
2021/12/15 03:53:55;;;;;;;103.38;20.15;;;5.10;99.90;;;;;;5010044;28;20552;-72
2021/12/15 03:56:21;;;;;;;67.68;17.98;;;5.20;99.90;;;;;;5011220;28;20062;-72
2021/12/15 03:58:47;;;;;;;65.40;19.50;;;5.10;99.90;;;;;;5010305;28;20060;-72
2021/12/15 04:01:18;;;;;;;62.10;17.77;;;5.20;99.90;;;;;;5010681;28;20108;-72
2021/12/15 04:03:50;;;;;;;60.25;17.73;;;5.20;99.90;;;;;;5011289;28;20470;-72
2021/12/15 04:06:20;;;;;;;62.53;17.95;;;5.10;99.90;;;;;;5010257;28;20058;-72
2021/12/15 04:08:47;;;;;;;62.78;17.73;;;5.10;99.90;;;;;;5010155;28;20029;-72
2021/12/15 04:11:16;;;;;;;59.90;16.77;;;5.10;99.90;;;;;;5010709;28;20044;-73
2021/12/15 04:13:46;;;;;;;61.47;16.42;;;5.10;99.90;;;;;;5010953;28;20113;-72
2021/12/15 04:16:26;;;;;;;62.28;17.35;;;5.10;99.90;;;;;;5010318;28;20490;-72
2021/12/15 04:18:52;;;;;;;64.82;15.70;;;5.00;99.90;;;;;;5008144;28;20038;-72
2021/12/15 04:21:18;;;;;;;93.20;17.95;;;5.00;99.90;;;;;;5010539;28;20049;-73
2021/12/15 04:23:51;;;;;;;44.72;14.45;;;5.00;99.90;;;;;;5010923;28;20050;-72
2021/12/15 04:26:17;;;;;;;47.97;14.02;;;5.00;99.90;;;;;;5008984;28;20593;-72
2021/12/15 04:28:43;;;;;;;44.22;14.23;;;5.00;99.90;;;;;;5009337;28;20113;-72
2021/12/15 04:31:14;;;;;;;58.53;16.95;;;5.00;99.90;;;;;;5009508;28;20025;-73
2021/12/15 04:33:43;;;;;;;60.60;16.80;;;5.10;99.90;;;;;;5008872;28;20030;-72
2021/12/15 04:36:11;;;;;;;61.30;18.13;;;5.00;99.90;;;;;;5008872;28;20034;-72
2021/12/15 04:38:38;;;;;;;62.10;18.77;;;5.00;99.90;;;;;;5011201;28;20038;-72
2021/12/15 04:41:06;;;;;;;75.25;20.95;;;5.00;99.90;;;;;;5011330;28;20032;-73
2021/12/15 04:43:34;;;;;;;65.82;20.15;;;5.00;99.90;;;;;;5010786;28;20117;-72
2021/12/15 04:46:03;;;;;;;56.10;18.45;;;5.00;99.90;;;;;;5010330;28;20049;-72
2021/12/15 04:48:29;;;;;;;67.20;19.83;;;5.00;99.90;;;;;;5007979;28;20052;-72
2021/12/15 04:50:55;;;;;;;56.75;17.38;;;5.00;99.90;;;;;;5010596;28;20466;-72
2021/12/15 04:53:22;;;;;;;53.90;16.85;;;5.00;99.90;;;;;;5007841;28;20045;-72
2021/12/15 04:55:47;;;;;;;53.45;16.95;;;5.00;99.90;;;;;;5010803;28;20033;-73
2021/12/15 04:58:13;;;;;;;49.20;15.68;;;5.10;99.90;;;;;;5009855;28;20048;-72
2021/12/15 05:00:50;;;;;;;50.33;15.75;;;5.10;99.90;;;;;;5009800;28;20037;-72
2021/12/15 05:03:16;;;;;;;43.78;15.02;;;5.10;99.90;;;;;;5009814;28;20038;-72
2021/12/15 05:05:42;;;;;;;44.08;15.43;;;5.10;99.90;;;;;;5007452;28;20076;-72
2021/12/15 05:08:08;;;;;;;45.63;14.88;;;5.00;99.90;;;;;;5003709;28;20026;-73
2021/12/15 05:10:35;;;;;;;46.85;15.88;;;5.00;99.90;;;;;;5010387;28;20034;-71
2021/12/15 05:13:01;;;;;;;46.03;14.68;;;5.00;99.90;;;;;;5009068;28;20383;-72
2021/12/15 05:15:28;;;;;;;46.58;14.95;;;5.00;99.90;;;;;;5008267;28;20306;-72
2021/12/15 05:17:54;;;;;;;46.90;14.75;;;5.00;99.90;;;;;;5009845;28;20126;-72
2021/12/15 05:20:20;;;;;;;50.25;15.63;;;5.00;99.90;;;;;;5008334;28;20109;-71
2021/12/15 05:22:45;;;;;;;40.30;14.05;;;5.10;99.90;;;;;;5008591;28;20033;-71
2021/12/15 05:25:12;;;;;;;45.90;14.68;;;5.10;99.90;;;;;;5007071;28;20026;-73
2021/12/15 05:27:38;;;;;;;56.05;15.98;;;5.10;99.90;;;;;;5004836;28;20042;-72
2021/12/15 05:30:10;;;;;;;54.42;17.50;;;5.10;99.90;;;;;;5009586;28;20061;-71
2021/12/15 05:32:38;;;;;;;53.45;17.45;;;5.10;99.90;;;;;;5009706;28;20030;-71
2021/12/15 05:35:05;;;;;;;62.80;18.73;;;5.10;99.90;;;;;;5006216;28;20030;-72
2021/12/15 05:37:32;;;;;;;68.70;20.35;;;5.10;99.90;;;;;;5009075;28;20045;-71
2021/12/15 05:39:59;;;;;;;61.65;18.60;;;5.10;99.90;;;;;;5008206;28;20034;-72
2021/12/15 05:42:26;;;;;;;60.42;18.65;;;5.10;99.90;;;;;;5007071;28;20343;-72
2021/12/15 05:44:54;;;;;;;55.80;16.13;;;5.10;99.90;;;;;;5000585;28;20025;-71
2021/12/15 05:47:21;;;;;;;53.80;17.75;;;5.10;99.90;;;;;;5007716;28;20117;-71
2021/12/15 05:49:48;;;;;;;62.15;17.95;;;5.10;99.90;;;;;;5006644;28;20041;-71
2021/12/15 05:52:14;;;;;;;61.05;18.17;;;5.10;99.90;;;;;;5007414;28;20116;-72
2021/12/15 05:54:40;;;;;;;61.05;17.98;;;5.10;99.90;;;;;;5006790;28;20059;-71
2021/12/15 05:57:06;;;;;;;58.72;18.80;;;5.10;99.90;;;;;;5009604;28;20041;-72
2021/12/15 05:59:33;;;;;;;68.45;22.23;;;5.10;99.90;;;;;;5008029;28;20038;-71
2021/12/15 06:01:58;;;;;;;68.75;21.23;;;5.10;99.90;;;;;;5008442;28;20018;-72
2021/12/15 06:04:24;;;;;;;63.40;18.65;;;5.10;99.90;;;;;;5005889;28;20040;-70
2021/12/15 06:06:50;;;;;;;60.83;17.98;;;5.10;99.90;;;;;;5009006;28;20445;-71
2021/12/15 06:09:16;;;;;;;52.25;17.42;;;5.10;99.90;;;;;;5008921;28;20431;-70
2021/12/15 06:11:43;;;;;;;56.05;18.35;;;5.10;99.90;;;;;;5006007;28;20040;-71
2021/12/15 06:14:09;;;;;;;54.10;17.33;;;5.10;99.90;;;;;;5009443;28;20393;-71
2021/12/15 06:16:35;;;;;;;52.80;17.30;;;5.00;99.90;;;;;;5007727;28;20033;-70
2021/12/15 06:19:04;;;;;;;53.03;16.67;;;5.00;99.90;;;;;;5009002;28;20033;-69
2021/12/15 06:21:31;;;;;;;53.10;17.63;;;5.00;99.90;;;;;;5008860;28;20045;-69
2021/12/15 06:23:58;;;;;;;52.22;17.00;;;5.00;99.90;;;;;;5009371;28;20052;-70
2021/12/15 06:26:23;;;;;;;50.45;17.25;;;5.00;99.90;;;;;;5006805;28;20046;-69
2021/12/15 06:28:49;;;;;;;49.17;16.80;;;5.00;99.90;;;;;;5008435;28;20390;-70
2021/12/15 06:31:16;;;;;;;52.15;17.40;;;5.00;99.90;;;;;;5008467;28;20463;-72
2021/12/15 06:33:43;;;;;;;55.38;16.95;;;5.10;99.90;;;;;;5009198;28;20091;-70
2021/12/15 06:36:09;;;;;;;58.15;18.73;;;5.10;99.90;;;;;;5008995;28;20030;-70
2021/12/15 06:38:39;;;;;;;61.35;18.73;;;5.10;99.90;;;;;;5008478;28;20611;-69
2021/12/15 06:41:07;;;;;;;60.42;20.85;;;5.10;99.90;;;;;;5008764;28;20021;-69
2021/12/15 06:43:37;;;;;;;61.78;21.80;;;5.10;99.90;;;;;;5007998;28;20345;-69
2021/12/15 06:46:30;;;;;;;67.07;23.60;;;5.10;99.90;;;;;;5009040;28;20026;-70
2021/12/15 07:00:11;;;;;;;58.83;18.88;;;5.00;99.90;;;;;;4971881;28;20051;-69
2021/12/15 07:02:38;;;;;;;54.05;18.25;;;5.00;99.90;;;;;;5008055;28;20522;-69
2021/12/15 07:05:04;;;;;;;63.75;20.35;;;5.00;99.90;;;;;;5009419;28;20784;-69
2021/12/15 07:07:30;;;;;;;60.47;19.30;;;5.00;99.90;;;;;;5007588;28;20088;-70
2021/12/15 07:09:56;;;;;;;67.35;25.08;;;5.00;99.90;;;;;;5008900;28;20422;-70
2021/12/15 07:12:21;;;;;;;65.07;22.25;;;5.00;99.90;;;;;;5008311;28;20490;-70
2021/12/15 07:14:47;;;;;;;54.83;19.25;;;5.00;99.90;;;;;;5008672;28;20482;-70
2021/12/15 07:17:20;;;;;;;55.78;18.98;;;4.90;99.90;;;;;;5008470;28;20034;-71
2021/12/15 07:20:05;;;;;;;50.17;17.67;;;4.90;99.90;;;;;;5007249;28;20029;-70
2021/12/15 07:25:00;;;;;;;59.78;18.80;;;5.00;99.90;;;;;;5008380;28;20037;-70
2021/12/15 07:27:27;;;;;;;58.83;18.85;;;4.90;99.90;;;;;;5007911;28;20483;-70
2021/12/15 07:29:52;;;;;;;49.85;18.83;;;4.90;99.90;;;;;;5007702;28;20446;-70
2021/12/15 07:32:18;;;;;;;52.25;18.80;;;5.00;99.90;;;;;;5008068;28;20066;-72
2021/12/15 07:34:44;;;;;;;50.08;17.98;;;5.00;99.90;;;;;;5008343;28;20430;-69
2021/12/15 07:37:10;;;;;;;51.78;17.15;;;5.00;99.90;;;;;;5007661;28;20061;-69
2021/12/15 07:39:37;;;;;;;50.38;18.88;;;5.00;99.90;;;;;;5005941;28;20303;-69
2021/12/15 07:42:07;;;;;;;50.15;17.30;;;5.00;99.90;;;;;;5007446;28;20387;-69
2021/12/15 07:44:33;;;;;;;43.80;15.38;;;5.00;99.90;;;;;;5008495;28;20033;-69
2021/12/15 07:47:00;;;;;;;48.47;17.17;;;5.10;99.90;;;;;;5008136;28;20467;-70
2021/12/15 07:49:27;;;;;;;47.67;16.63;;;5.10;99.90;;;;;;5007629;28;20084;-70
2021/12/15 07:52:01;;;;;;;44.35;15.82;;;5.10;99.90;;;;;;5008250;28;20475;-69
2021/12/15 07:54:32;;;;;;;44.70;16.08;;;5.10;99.90;;;;;;5008629;28;20470;-69
2021/12/15 07:56:59;;;;;;;47.22;16.73;;;5.10;99.90;;;;;;5012159;28;20041;-69
2021/12/15 07:59:25;;;;;;;49.88;17.65;;;5.10;99.90;;;;;;5011082;28;20096;-69
2021/12/15 08:01:51;;;;;;;44.08;15.77;;;5.10;99.90;;;;;;5011329;28;20026;-69
2021/12/15 08:04:18;;;;;;;49.45;16.60;;;5.10;99.90;;;;;;5012113;28;20386;-72
2021/12/15 08:06:46;;;;;;;53.63;16.48;;;5.20;99.90;;;;;;5008134;28;20040;-70
2021/12/15 08:09:12;;;;;;;45.20;15.65;;;5.20;99.90;;;;;;5011412;28;20026;-70
2021/12/15 08:11:37;;;;;;;43.55;15.73;;;5.20;99.90;;;;;;5011775;28;20698;-70
2021/12/15 08:14:03;;;;;;;46.22;15.68;;;5.20;99.90;;;;;;5010219;28;20074;-69
2021/12/15 08:16:29;;;;;;;52.22;17.42;;;5.20;99.90;;;;;;5009476;28;20034;-69
2021/12/15 08:18:55;;;;;;;51.53;16.58;;;5.20;99.90;;;;;;5011884;28;20117;-70
2021/12/15 08:21:20;;;;;;;47.92;15.95;;;5.20;99.90;;;;;;5010141;28;20649;-74
2021/12/15 08:23:46;;;;;;;46.33;15.45;;;5.20;99.90;;;;;;5010736;28;20040;-69
2021/12/15 08:26:12;;;;;;;38.58;14.90;;;5.20;99.90;;;;;;5010431;28;20029;-69
2021/12/15 08:28:38;;;;;;;44.15;16.10;;;5.20;99.90;;;;;;5009613;28;20717;-72
2021/12/15 08:31:05;;;;;;;42.05;16.25;;;5.20;99.90;;;;;;5008086;28;20042;-70
2021/12/15 08:33:31;;;;;;;44.72;16.00;;;5.20;99.90;;;;;;5007914;28;20087;-69
2021/12/15 08:36:04;;;;;;;45.47;15.95;;;5.20;99.90;;;;;;5008652;28;20085;-69
2021/12/15 08:38:33;;;;;;;53.67;17.67;;;5.30;99.90;;;;;;5010300;28;20037;-70
2021/12/15 08:41:00;;;;;;;46.20;17.80;;;5.30;99.90;;;;;;5010865;28;20022;-70
2021/12/15 08:43:27;;;;;;;52.90;18.15;;;5.20;99.90;;;;;;5010522;28;20037;-69
2021/12/15 08:46:09;;;;;;;43.17;16.88;;;5.30;99.90;;;;;;5010826;28;20087;-69
2021/12/15 08:48:38;;;;;;;48.88;17.30;;;5.20;99.90;;;;;;5010320;28;20038;-69
2021/12/15 08:51:06;;;;;;;46.40;16.92;;;5.30;99.90;;;;;;5010743;28;20038;-69
2021/12/15 08:53:32;;;;;;;47.78;17.83;;;5.30;99.90;;;;;;5009863;28;20497;-69
2021/12/15 08:55:58;;;;;;;50.53;16.00;;;5.30;99.90;;;;;;5009707;28;20471;-70
2021/12/15 08:58:24;;;;;;;46.10;16.45;;;5.30;99.90;;;;;;5010014;28;20501;-71
2021/12/15 09:00:53;;;;;;;49.30;18.33;;;5.40;99.90;;;;;;5010856;28;20092;-70
2021/12/15 09:03:20;;;;;;;49.42;18.33;;;5.40;99.90;;;;;;5010981;28;20038;-69
2021/12/15 09:05:49;;;;;;;39.85;15.82;;;5.40;99.90;;;;;;5009876;28;20033;-69
2021/12/15 09:08:15;;;;;;;44.92;17.75;;;5.30;99.90;;;;;;5010689;28;20072;-69
2021/12/15 09:10:45;;;;;;;43.40;17.10;;;5.30;99.90;;;;;;5009758;28;20097;-69
2021/12/15 09:13:11;;;;;;;24.65;10.60;;;5.30;99.90;;;;;;4992802;28;20467;-69
2021/12/15 09:15:39;;;;;;;34.92;14.75;;;5.20;99.90;;;;;;5009698;28;20474;-69
2021/12/15 09:18:05;;;;;;;38.55;14.43;;;5.20;99.90;;;;;;5010661;28;20068;-69
2021/12/15 09:20:32;;;;;;;31.35;13.63;;;5.20;99.90;;;;;;5009465;28;20030;-69
2021/12/15 09:23:01;;;;;;;34.70;14.75;;;5.20;99.90;;;;;;5010482;28;20033;-70
2021/12/15 09:25:27;;;;;;;32.80;14.63;;;5.20;99.90;;;;;;5009423;28;20121;-69
2021/12/15 09:27:53;;;;;;;35.42;14.00;;;5.30;99.90;;;;;;5010276;28;20141;-69
2021/12/15 09:30:20;;;;;;;39.45;15.07;;;5.30;99.90;;;;;;5010432;28;20033;-70
2021/12/15 09:32:47;;;;;;;35.85;16.15;;;5.40;99.90;;;;;;5009390;28;20033;-69
2021/12/15 09:35:16;;;;;;;31.75;13.13;;;5.40;99.90;;;;;;5010365;28;20429;-69
2021/12/15 09:37:43;;;;;;;38.33;14.82;;;5.40;99.90;;;;;;5008155;28;20044;-69
2021/12/15 09:40:11;;;;;;;49.30;21.92;;;5.40;99.90;;;;;;5009940;28;20475;-69
2021/12/15 09:42:39;;;;;;;50.42;22.13;;;5.40;99.90;;;;;;5009218;28;20162;-69
2021/12/15 09:45:26;;;;;;;31.80;13.88;;;5.50;99.90;;;;;;5008896;28;20394;-70
2021/12/15 10:07:16;;;;;;;18.92;8.77;;;5.40;99.90;;;;;;5008919;28;20034;-69
2021/12/15 10:18:10;;;;;;;15.38;7.45;;;5.40;99.90;;;;;;5007341;28;20525;-69
2021/12/15 10:20:37;;;;;;;21.08;9.45;;;5.40;99.90;;;;;;5008995;28;20030;-69
2021/12/15 10:23:12;;;;;;;15.13;7.88;;;5.40;99.90;;;;;;5008090;28;20033;-69
2021/12/15 10:25:49;;;;;;;19.42;9.32;;;5.40;99.90;;;;;;5007558;28;20037;-69
2021/12/15 10:28:19;;;;;;;20.38;9.93;;;5.40;99.90;;;;;;5009206;28;20065;-69
2021/12/15 10:30:59;;;;;;;17.75;8.13;;;5.40;99.90;;;;;;5008600;28;20105;-69
2021/12/15 10:33:31;;;;;;;19.33;9.45;;;5.40;99.90;;;;;;5009397;28;20108;-70
2021/12/15 10:35:59;;;;;;;14.27;7.15;;;5.50;99.90;;;;;;5009045;28;20034;-69
2021/12/15 10:38:43;;;;;;;19.38;9.82;;;5.40;99.90;;;;;;5009188;28;20041;-69
2021/12/15 10:41:29;;;;;;;15.13;7.18;;;5.40;99.90;;;;;;5009460;28;20037;-69
2021/12/15 10:44:06;;;;;;;11.63;6.53;;;5.40;99.90;;;;;;5001281;28;20046;-69
2021/12/15 10:46:38;;;;;;;14.63;7.28;;;5.40;99.90;;;;;;5008279;28;20030;-69
2021/12/15 10:49:33;;;;;;;22.33;9.70;;;5.30;99.90;;;;;;5009623;28;20152;-69
2021/12/15 10:52:03;;;;;;;14.80;6.93;;;5.30;99.90;;;;;;5008804;28;20084;-70
2021/12/15 10:54:36;;;;;;;13.85;6.22;;;5.30;99.90;;;;;;5008744;28;20045;-71
2021/12/15 10:57:18;;;;;;;10.55;4.90;;;5.30;99.90;;;;;;5009169;28;20033;-69
2021/12/15 10:59:46;;;;;;;8.75;4.47;;;5.30;99.90;;;;;;5007953;28;20077;-69
2021/12/15 11:02:22;;;;;;;8.35;3.67;;;5.30;99.90;;;;;;5009044;28;20104;-69
2021/12/15 11:04:55;;;;;;;9.40;4.68;;;5.30;99.90;;;;;;5003913;28;20026;-68
2021/12/15 11:07:35;;;;;;;14.85;6.30;;;5.30;99.90;;;;;;5008760;28;20502;-69
2021/12/15 11:10:13;;;;;;;16.13;7.72;;;5.30;99.90;;;;;;5008611;28;20033;-69
2021/12/15 11:12:53;;;;;;;9.50;4.88;;;5.30;99.90;;;;;;5007942;28;20113;-69
2021/12/15 11:15:32;;;;;;;10.00;4.43;;;5.40;99.90;;;;;;5009062;28;20053;-69
2021/12/15 11:18:10;;;;;;;10.52;5.78;;;5.20;99.90;;;;;;5007554;28;20038;-69
2021/12/15 11:20:40;;;;;;;11.80;6.00;;;5.20;99.90;;;;;;5007833;28;20121;-69
2021/12/15 11:23:14;;;;;;;13.23;6.07;;;5.20;99.90;;;;;;5007281;28;20034;-69
2021/12/15 11:25:56;;;;;;;10.13;5.28;;;5.30;99.90;;;;;;5007690;28;20363;-69
2021/12/15 11:28:24;;;;;;;10.73;4.80;;;5.30;99.90;;;;;;5009647;28;20053;-69
2021/12/15 11:31:14;;;;;;;9.48;4.53;;;5.30;99.90;;;;;;5011462;28;20030;-69
2021/12/15 11:33:42;;;;;;;10.23;4.32;;;5.20;99.90;;;;;;5011401;28;20430;-69
2021/12/15 11:36:15;;;;;;;7.72;3.65;;;5.20;99.90;;;;;;5012710;28;20072;-69
2021/12/15 11:38:47;;;;;;;7.80;3.90;;;5.20;99.90;;;;;;5011568;28;20079;-69
2021/12/15 11:41:24;;;;;;;9.32;4.78;;;5.10;99.90;;;;;;5012037;28;20021;-69
2021/12/15 11:43:57;;;;;;;9.20;3.72;;;5.10;99.90;;;;;;5011815;28;20037;-69
2021/12/15 11:46:39;;;;;;;8.90;3.85;;;5.20;99.90;;;;;;5009820;28;20036;-69
2021/12/15 11:49:09;;;;;;;8.50;4.70;;;5.20;99.90;;;;;;5011142;28;20026;-69
2021/12/15 11:51:43;;;;;;;8.68;4.45;;;5.20;99.90;;;;;;5000955;28;20038;-69
2021/12/15 11:54:22;;;;;;;16.45;6.40;;;5.10;99.90;;;;;;5012202;28;20430;-69
2021/12/15 11:57:06;;;;;;;28.95;13.55;;;5.20;99.90;;;;;;5009688;28;20486;-70
2021/12/15 11:59:39;;;;;;;18.15;8.65;;;5.10;99.90;;;;;;5011457;28;20030;-72
2021/12/15 12:02:21;;;;;;;7.53;3.00;;;5.10;99.90;;;;;;5012214;28;20068;-69
2021/12/15 12:05:28;;;;;;;13.82;6.40;;;5.10;99.90;;;;;;5011136;28;20034;-69
2021/12/15 12:07:58;;;;;;;41.38;16.55;;;5.20;99.90;;;;;;5011141;28;20025;-69
2021/12/15 12:10:48;;;;;;;10.23;4.63;;;5.30;99.90;;;;;;5012198;28;20038;-69
2021/12/15 12:13:21;;;;;;;9.95;4.72;;;5.30;99.90;;;;;;5011665;28;20053;-69
2021/12/15 12:15:49;;;;;;;10.85;5.50;;;5.20;99.90;;;;;;5009367;28;20041;-69
2021/12/15 12:18:18;;;;;;;11.88;5.68;;;5.10;99.90;;;;;;5011953;28;20034;-69
2021/12/15 12:20:56;;;;;;;9.90;5.25;;;5.20;99.90;;;;;;5005155;28;20478;-69
2021/12/15 12:23:25;;;;;;;10.02;5.22;;;5.20;99.90;;;;;;5011505;28;20137;-69
2021/12/15 12:25:54;;;;;;;11.43;5.60;;;5.20;99.90;;;;;;5009367;28;20030;-69
2021/12/15 12:28:27;;;;;;;11.05;5.35;;;5.10;99.90;;;;;;5011561;28;20081;-69
2021/12/15 12:30:58;;;;;;;9.85;5.07;;;5.10;99.90;;;;;;5010329;28;20033;-69
2021/12/15 12:33:26;;;;;;;10.00;4.90;;;5.00;99.90;;;;;;5011840;28;20120;-69
2021/12/15 12:36:06;;;;;;;12.48;6.05;;;5.00;99.90;;;;;;5010255;28;20474;-68
2021/12/15 12:38:35;;;;;;;9.18;4.35;;;5.00;99.90;;;;;;5011596;28;20038;-69
2021/12/15 12:41:11;;;;;;;12.18;5.15;;;5.00;99.90;;;;;;5010150;28;20041;-70
2021/12/15 12:43:40;;;;;;;10.88;5.35;;;5.00;99.90;;;;;;5010720;28;20121;-71
2021/12/15 12:46:57;;;;;;;14.68;7.60;;;4.90;99.90;;;;;;5009759;28;20057;-69
2021/12/15 13:00:27;;;;;;;61.58;30.00;;;5.00;99.90;;;;;;5001780;28;20505;-69
2021/12/15 13:03:01;;;;;;;12.40;6.35;;;5.00;99.90;;;;;;5010009;28;20478;-69
2021/12/15 13:05:51;;;;;;;16.65;7.97;;;5.00;99.90;;;;;;5010692;28;20045;-69
2021/12/15 13:08:29;;;;;;;23.35;11.32;;;5.00;99.90;;;;;;5009356;28;20430;-69
2021/12/15 13:11:03;;;;;;;10.48;5.63;;;5.10;99.90;;;;;;5010206;28;20057;-69
2021/12/15 13:13:48;;;;;;;52.63;26.33;;;5.10;99.90;;;;;;5010566;28;20057;-69
2021/12/15 13:16:42;;;;;;;51.40;23.90;;;5.10;99.90;;;;;;5009231;28;20042;-68
2021/12/15 13:19:12;;;;;;;13.07;6.60;;;5.10;99.90;;;;;;5007884;28;20037;-70
2021/12/15 13:21:49;;;;;;;9.95;5.20;;;5.10;99.90;;;;;;5010339;28;20025;-72
2021/12/15 13:30:51;;;;;;;46.53;17.38;;;4.90;99.90;;;;;;5010030;28;20092;-69
2021/12/15 13:33:32;;;;;;;19.17;8.85;;;5.00;99.90;;;;;;5003406;28;20045;-69
2021/12/15 13:36:17;;;;;;;13.32;6.45;;;5.00;99.90;;;;;;5009500;28;20052;-69
2021/12/15 13:39:15;;;;;;;11.98;5.93;;;5.00;99.90;;;;;;5009362;28;20025;-69
2021/12/15 13:42:03;;;;;;;11.52;5.40;;;4.90;99.90;;;;;;5008716;28;20113;-71
2021/12/15 13:44:35;;;;;;;11.02;5.13;;;4.80;99.90;;;;;;5010274;28;20021;-69
2021/12/15 13:47:15;;;;;;;16.35;7.07;;;4.80;99.90;;;;;;5009330;28;20103;-69
2021/12/15 13:49:54;;;;;;;12.90;5.87;;;4.90;99.90;;;;;;5008293;28;20050;-72
2021/12/15 13:52:28;;;;;;;29.85;15.52;;;4.80;99.90;;;;;;4989526;28;20289;-70
2021/12/15 13:55:13;;;;;;;13.95;6.75;;;4.80;99.90;;;;;;5003428;28;20034;-69
2021/12/15 13:58:02;;;;;;;24.00;12.65;;;4.80;99.90;;;;;;5009616;28;20470;-72
2021/12/15 14:00:55;;;;;;;12.48;6.32;;;4.80;99.90;;;;;;5009766;28;20037;-70
2021/12/15 14:03:48;;;;;;;27.88;12.40;;;4.80;99.90;;;;;;5008043;28;20103;-69
2021/12/15 14:06:23;;;;;;;29.48;12.20;;;4.80;99.90;;;;;;5008323;28;20058;-69
2021/12/15 14:08:56;;;;;;;13.55;7.13;;;4.80;99.90;;;;;;5009262;28;20034;-69
2021/12/15 14:11:27;;;;;;;15.65;7.47;;;4.80;99.90;;;;;;5009678;28;20052;-69
2021/12/15 14:13:52;;;;;;;17.50;7.78;;;4.70;99.90;;;;;;5008638;28;20167;-69
2021/12/15 14:16:38;;;;;;;23.77;10.23;;;4.70;99.90;;;;;;5009671;28;20470;-69
2021/12/15 14:19:11;;;;;;;27.70;12.25;;;4.70;99.90;;;;;;5009329;28;20748;-69
2021/12/15 14:21:38;;;;;;;31.20;13.02;;;4.70;99.90;;;;;;5007840;28;20029;-69
2021/12/15 14:24:05;;;;;;;69.00;40.80;;;4.70;99.90;;;;;;5008816;28;20042;-69
2021/12/15 14:26:34;;;;;;;35.17;17.67;;;4.80;99.90;;;;;;5009594;28;20741;-69
2021/12/15 14:29:24;;;;;;;24.77;12.05;;;4.80;99.90;;;;;;5007105;28;20091;-70